Time;durP1;ratioP1;P1;durP2;ratioP2;P2;SDS_P1;SDS_P2;PMS_P1;PMS_P2;Temp;Humidity;BMP_temperature;BMP_pressure;BME280_temperature;BME280_humidity;BME280_pressure;Samples;Min_cycle;Max_cycle;Signal;HPM_P1;HPM_P2
2023/05/04 00:01:22;;;;;;;3.83;3.40;;;;;;;12.25;60.37;99794.75;5066328;28;20202;-78
2023/05/04 00:03:47;;;;;;;5.73;4.67;;;;;;;12.26;60.16;99793.81;5065770;28;20217;-79
2023/05/04 00:06:13;;;;;;;4.43;3.63;;;;;;;12.26;60.32;99792.94;5065916;28;20214;-78
2023/05/04 00:08:39;;;;;;;5.90;4.00;;;;;;;12.26;60.53;99793.81;5066872;28;20243;-78
2023/05/04 00:11:04;;;;;;;5.40;3.80;;;;;;;12.26;60.52;99785.03;5064389;28;20581;-78
2023/05/04 00:13:29;;;;;;;4.70;4.27;;;;;;;12.23;60.74;99790.53;5064180;28;20213;-80
2023/05/04 00:15:55;;;;;;;4.70;4.30;;;;;;;12.23;60.86;99785.25;5064713;28;20280;-78
2023/05/04 00:18:20;;;;;;;5.93;4.77;;;;;;;12.21;61.00;99784.53;5066409;28;20212;-80
2023/05/04 00:20:46;;;;;;;4.60;4.20;;;;;;;12.19;60.85;99771.47;5064324;28;20663;-77
2023/05/04 00:23:11;;;;;;;4.40;4.10;;;;;;;12.16;61.01;99784.84;5064506;28;20215;-79
2023/05/04 00:25:37;;;;;;;4.17;3.60;;;;;;;12.13;61.22;99779.78;5064209;28;20451;-77
2023/05/04 00:28:03;;;;;;;4.65;3.90;;;;;;;12.11;60.93;99777.25;5063830;28;20397;-79
2023/05/04 00:30:28;;;;;;;6.83;4.20;;;;;;;12.07;61.35;99775.78;5062238;28;20441;-80
2023/05/04 00:32:53;;;;;;;4.37;3.97;;;;;;;12.02;61.30;99780.50;5063153;28;20503;-79
2023/05/04 00:35:19;;;;;;;5.53;4.70;;;;;;;11.99;61.79;99778.06;5060851;28;20442;-80
2023/05/04 00:37:45;;;;;;;4.97;4.47;;;;;;;11.95;61.98;99773.94;5065164;28;20207;-80
2023/05/04 00:40:11;;;;;;;4.95;4.45;;;;;;;11.90;62.00;99774.25;5063275;28;20568;-80
2023/05/04 00:42:36;;;;;;;4.93;4.37;;;;;;;11.89;61.91;99780.47;5065978;28;20228;-80
2023/05/04 00:45:01;;;;;;;4.20;3.73;;;;;;;11.89;62.04;99777.00;5063891;28;20203;-79
2023/05/04 00:47:28;;;;;;;5.70;5.20;;;;;;;11.88;61.89;99773.53;5066693;28;20606;-78
2023/05/04 00:49:54;;;;;;;5.20;4.65;;;;;;;11.89;61.86;99767.31;5068234;28;20196;-77
2023/05/04 00:52:21;;;;;;;6.83;4.43;;;;;;;11.87;61.96;99769.19;5066108;28;20287;-77
2023/05/04 00:54:46;;;;;;;4.82;4.28;;;;;;;11.86;62.07;99770.16;5064734;28;20217;-79
2023/05/04 00:57:13;;;;;;;5.17;4.27;;;;;;;11.79;62.55;99765.34;5067543;28;20692;-80
2023/05/04 00:59:38;;;;;;;5.72;4.78;;;;;;;11.74;62.34;99761.22;5062580;28;20240;-79
2023/05/04 01:02:04;;;;;;;9.80;4.17;;;;;;;11.72;62.46;99763.13;5060817;28;20220;-81
2023/05/04 01:04:29;;;;;;;5.13;4.10;;;;;;;11.71;62.51;99768.47;5059323;28;20790;-78
2023/05/04 01:07:24;;;;;;;6.90;4.30;;;;;;;11.70;62.63;99764.19;5062956;28;20220;-81
2023/05/04 01:10:00;;;;;;;4.43;3.95;;;;;;;11.69;62.70;99771.25;5043539;28;20260;-80
2023/05/04 01:12:39;;;;;;;5.00;4.60;;;;;;;11.68;62.90;99759.00;5061696;28;20296;-78
2023/05/04 01:15:08;;;;;;;4.53;4.22;;;;;;;11.63;62.86;99768.97;5062250;28;20320;-80
2023/05/04 01:17:34;;;;;;;4.65;4.25;;;;;;;11.63;63.13;99765.50;5060737;28;20373;-78
2023/05/04 01:19:59;;;;;;;4.53;4.13;;;;;;;11.65;63.10;99767.09;5062478;28;21149;-80
2023/05/04 01:22:25;;;;;;;4.60;4.20;;;;;;;11.64;62.87;99770.69;5063598;28;20731;-77
2023/05/04 01:24:53;;;;;;;5.22;3.92;;;;;;;11.63;63.17;99768.16;5065482;28;20572;-81
2023/05/04 01:27:41;;;;;;;5.43;4.03;;;;;;;11.58;63.25;99771.06;5063652;28;20691;-79
2023/05/04 01:30:34;;;;;;;5.00;4.38;;;;;;;11.57;63.28;99768.56;5063333;28;20202;-78
2023/05/04 01:33:01;;;;;;;8.45;4.22;;;;;;;11.55;63.46;99775.69;5105431;22;20214;-82
2023/05/04 01:35:27;;;;;;;4.03;3.28;;;;;;;11.47;63.49;99774.41;5061735;28;20218;-82
2023/05/04 01:37:53;;;;;;;6.60;5.30;;;;;;;11.44;63.83;99779.03;5059341;28;20198;-82
2023/05/04 01:40:19;;;;;;;5.70;4.27;;;;;;;11.44;63.80;99776.38;5067643;28;20763;-82
2023/05/04 01:42:44;;;;;;;4.37;3.20;;;;;;;11.43;63.74;99772.91;5079151;28;20387;-82
2023/05/04 01:45:10;;;;;;;7.70;4.80;;;;;;;11.45;63.46;99780.69;5076892;28;20704;-82
2023/05/04 01:47:37;;;;;;;4.82;4.43;;;;;;;11.44;63.46;99779.03;5077093;28;20196;-82
2023/05/04 01:50:04;;;;;;;5.18;4.65;;;;;;;11.42;63.52;99779.13;5076119;28;20186;-82
2023/05/04 01:52:30;;;;;;;5.38;4.22;;;;;;;11.42;63.55;99778.25;5073479;28;20210;-82
2023/05/04 01:54:55;;;;;;;7.10;4.80;;;;;;;11.41;63.57;99777.44;5078104;28;20214;-82
2023/05/04 01:57:21;;;;;;;5.47;4.97;;;;;;;11.34;63.59;99772.66;5076306;28;20682;-82
2023/05/04 01:59:46;;;;;;;5.37;4.17;;;;;;;11.24;63.69;99772.41;5078886;28;20229;-83
2023/05/04 02:02:11;;;;;;;5.60;5.07;;;;;;;11.18;64.03;99778.03;5075220;28;20292;-82
2023/05/04 02:04:37;;;;;;;4.83;4.30;;;;;;;11.15;63.91;99778.25;5076025;28;20190;-82
2023/05/04 02:07:02;;;;;;;5.20;4.70;;;;;;;11.14;63.99;99773.94;5076757;28;20565;-82
2023/05/04 02:09:28;;;;;;;7.23;5.03;;;;;;;11.14;64.08;99780.03;5076557;28;20198;-82
2023/05/04 02:11:53;;;;;;;5.20;4.70;;;;;;;11.17;63.77;99777.22;5078443;28;20210;-82
2023/05/04 02:14:19;;;;;;;6.07;5.13;;;;;;;11.20;63.85;99782.25;5077995;28;20268;-83
2023/05/04 02:16:45;;;;;;;7.37;6.57;;;;;;;11.21;63.79;99778.72;5089506;28;20290;-82
2023/05/04 02:19:10;;;;;;;12.23;4.40;;;;;;;11.21;63.87;99788.41;5081605;28;20489;-82
2023/05/04 02:21:36;;;;;;;8.13;5.80;;;;;;;11.23;63.81;99776.84;5078363;28;20231;-82
2023/05/04 02:24:03;;;;;;;7.73;5.53;;;;;;;11.25;63.64;99782.81;5077783;28;20273;-82
2023/05/04 02:26:29;;;;;;;5.30;4.80;;;;;;;11.27;63.41;99775.69;5079187;28;20208;-82
2023/05/04 02:28:55;;;;;;;6.00;5.13;;;;;;;11.29;63.61;99781.69;5078811;28;20212;-82
2023/05/04 02:31:20;;;;;;;6.70;5.95;;;;;;;11.29;63.70;99771.19;5078266;28;20251;-82
2023/05/04 02:33:46;;;;;;;8.10;5.53;;;;;;;11.29;63.66;99771.19;5075118;28;20297;-81
2023/05/04 02:36:11;;;;;;;7.57;6.30;;;;;;;11.30;64.33;99772.84;5064428;28;20441;-82
2023/05/04 02:38:36;;;;;;;6.60;5.90;;;;;;;11.22;64.50;99775.13;5084499;28;20208;-82
2023/05/04 02:41:02;;;;;;;5.10;4.60;;;;;;;11.20;64.50;99777.00;5062207;28;20292;-83
2023/05/04 02:43:27;;;;;;;6.43;5.80;;;;;;;11.18;64.64;99776.28;5063124;28;20554;-83
2023/05/04 02:45:53;;;;;;;7.00;5.13;;;;;;;11.13;64.47;99788.03;5064275;28;20200;-83
2023/05/04 02:48:19;;;;;;;4.70;4.30;;;;;;;11.08;64.50;99778.63;5062054;28;20265;-82
2023/05/04 02:50:45;;;;;;;6.63;4.43;;;;;;;11.04;64.63;99778.91;5066184;28;20712;-82
2023/05/04 02:53:10;;;;;;;5.95;5.00;;;;;;;11.03;64.52;99775.44;5065385;28;20212;-82
2023/05/04 02:55:36;;;;;;;5.50;4.87;;;;;;;11.02;64.50;99773.78;5065904;28;20197;-82
2023/05/04 02:58:01;;;;;;;11.40;5.33;;;;;;;11.01;64.51;99765.97;5066176;28;20334;-82
2023/05/04 03:00:27;;;;;;;7.23;5.67;;;;;;;11.01;64.41;99776.47;5066525;28;20211;-82
2023/05/04 03:02:52;;;;;;;5.30;4.23;;;;;;;10.98;64.46;99767.00;5065081;28;20256;-82
2023/05/04 03:05:18;;;;;;;7.05;5.70;;;;;;;10.98;64.64;99769.63;5066475;28;20424;-82
2023/05/04 03:07:44;;;;;;;7.70;5.27;;;;;;;10.98;64.91;99768.78;5067252;28;20203;-82
2023/05/04 03:10:09;;;;;;;5.50;4.73;;;;;;;10.94;64.77;99767.31;5068220;28;20196;-82
2023/05/04 03:12:34;;;;;;;6.27;4.73;;;;;;;10.91;64.69;99765.72;5069928;28;20209;-82
2023/05/04 03:15:00;;;;;;;6.50;4.47;;;;;;;10.90;64.93;99768.44;5068377;28;20204;-82
2023/05/04 03:17:26;;;;;;;5.88;5.28;;;;;;;10.89;64.83;99770.22;5066865;28;20204;-84
2023/05/04 03:19:52;;;;;;;5.47;4.97;;;;;;;10.90;64.88;99771.06;5065780;28;20629;-83
2023/05/04 03:22:18;;;;;;;8.47;4.93;;;;;;;10.90;64.83;99768.44;5066700;28;20704;-83
2023/05/04 03:24:43;;;;;;;7.60;5.97;;;;;;;10.90;64.73;99768.44;5067059;28;20213;-83
2023/05/04 03:27:09;;;;;;;5.40;4.90;;;;;;;10.87;64.90;99772.09;5068006;28;20189;-84
2023/05/04 03:29:36;;;;;;;6.50;5.30;;;;;;;10.84;64.82;99772.28;5084662;28;20287;-84
2023/05/04 03:32:01;;;;;;;7.10;5.87;;;;;;;10.79;65.04;99777.81;5068484;28;20863;-84
2023/05/04 03:34:27;;;;;;;4.70;4.17;;;;;;;10.75;64.84;99765.00;5066788;28;20204;-83
2023/05/04 03:36:57;;;;;;;6.18;4.68;;;;;;;10.73;65.00;99765.06;5065108;28;20313;-84
2023/05/04 03:39:23;;;;;;;5.20;4.80;;;;;;;10.66;65.16;99768.16;5060312;28;20294;-84
2023/05/04 03:41:51;;;;;;;4.20;3.73;;;;;;;10.58;65.33;99766.00;5065848;28;20450;-83
2023/05/04 03:44:16;;;;;;;5.07;4.13;;;;;;;10.49;65.12;99769.19;5080140;28;20209;-84
2023/05/04 03:46:42;;;;;;;5.43;4.45;;;;;;;10.41;65.51;99772.28;5063953;28;20200;-84
2023/05/04 03:49:08;;;;;;;7.10;4.30;;;;;;;10.32;65.45;99768.44;5076943;28;20184;-83
2023/05/04 03:51:33;;;;;;;3.93;3.63;;;;;;;10.26;65.41;99773.16;5062807;28;20251;-84
2023/05/04 03:54:00;;;;;;;6.97;4.85;;;;;;;10.23;65.75;99774.19;5062638;28;20253;-86
2023/05/04 03:56:26;;;;;;;4.80;4.15;;;;;;;10.22;65.69;99771.66;5065370;28;20231;-84
2023/05/04 03:58:51;;;;;;;9.03;5.77;;;;;;;10.19;65.75;99778.78;5062942;28;20701;-84
2023/05/04 04:01:20;;;;;;;6.40;5.68;;;;;;;10.21;65.82;99773.47;5062910;28;20664;-84
2023/05/04 04:03:46;;;;;;;8.00;5.63;;;;;;;10.21;65.55;99770.84;5063099;28;20240;-84
2023/05/04 04:06:12;;;;;;;6.68;5.75;;;;;;;10.25;66.10;99768.88;5079890;28;20426;-84
2023/05/04 04:08:37;;;;;;;10.82;5.78;;;;;;;10.27;66.21;99773.13;5080472;28;20200;-84
2023/05/04 04:11:03;;;;;;;6.70;4.97;;;;;;;10.26;66.02;99776.66;5064313;28;20225;-85
2023/05/04 04:13:28;;;;;;;7.97;5.80;;;;;;;10.26;65.97;99774.03;5063609;28;20300;-85
2023/05/04 04:15:54;;;;;;;6.30;4.80;;;;;;;10.25;66.08;99777.56;5065164;28;20185;-84
2023/05/04 04:18:19;;;;;;;7.80;4.93;;;;;;;10.25;65.88;99777.56;5065568;28;20199;-84
2023/05/04 04:20:45;;;;;;;5.83;5.30;;;;;;;10.25;65.84;99772.31;5065498;28;20612;-84
2023/05/04 04:23:10;;;;;;;6.00;5.40;;;;;;;10.27;65.58;99783.63;5068754;28;20233;-84
2023/05/04 04:25:36;;;;;;;7.93;5.83;;;;;;;10.31;65.31;99773.78;5069127;28;20227;-83
2023/05/04 04:28:02;;;;;;;9.07;5.80;;;;;;;10.36;65.26;99780.44;5068819;28;20253;-83
2023/05/04 04:30:28;;;;;;;8.00;6.13;;;;;;;10.41;65.26;99772.28;5066251;28;20738;-84
2023/05/04 04:32:55;;;;;;;8.80;7.17;;;;;;;10.44;65.11;99772.09;5069608;28;20446;-83
2023/05/04 04:35:22;;;;;;;8.88;7.30;;;;;;;10.49;65.41;99777.91;5067667;28;20513;-84
2023/05/04 04:37:47;;;;;;;9.85;7.30;;;;;;;10.49;65.53;99769.19;5069360;28;20691;-84
2023/05/04 04:40:13;;;;;;;8.93;6.67;;;;;;;10.48;65.44;99772.78;5069021;28;20212;-83
2023/05/04 04:42:38;;;;;;;11.10;8.43;;;;;;;10.48;65.39;99788.53;5069437;28;20212;-84
2023/05/04 04:45:04;;;;;;;5.53;4.97;;;;;;;10.45;65.42;99792.19;5068622;28;20598;-84
2023/05/04 04:47:31;;;;;;;3.63;3.30;;;;;;;10.37;65.43;99783.94;5070259;28;20234;-84
2023/05/04 04:49:57;;;;;;;4.93;3.33;;;;;;;10.29;65.36;99783.50;5070218;28;20525;-83
2023/05/04 04:52:22;;;;;;;4.13;3.27;;;;;;;10.22;65.46;99783.00;5070335;28;20209;-84
2023/05/04 04:54:48;;;;;;;3.63;3.30;;;;;;;10.25;65.61;99787.25;5072984;28;20233;-84
2023/05/04 04:57:13;;;;;;;3.93;3.50;;;;;;;10.33;65.38;99785.03;5071931;28;20198;-85
2023/05/04 04:59:39;;;;;;;3.37;3.17;;;;;;;10.62;64.53;99786.75;5071746;28;20206;-84
2023/05/04 05:02:05;;;;;;;8.85;6.10;;;;;;;11.13;63.57;99791.50;5071801;28;20697;-83
2023/05/04 05:04:30;;;;;;;7.83;5.20;;;;;;;11.69;61.95;99779.13;5071279;28;20445;-83
2023/05/04 05:06:56;;;;;;;5.70;4.50;;;;;;;12.20;60.61;99783.66;5072489;28;20277;-84
2023/05/04 05:09:21;;;;;;;5.80;5.20;;;;;;;12.62;59.49;99779.91;5071673;28;20205;-84
2023/05/04 05:11:46;;;;;;;5.60;4.70;;;;;;;13.01;58.42;99780.66;5070371;28;20228;-84
2023/05/04 05:14:12;;;;;;;8.80;5.90;;;;;;;13.41;57.53;99783.13;5068758;28;20217;-83
2023/05/04 05:16:37;;;;;;;8.40;5.30;;;;;;;13.83;56.47;99786.22;5070926;28;20222;-83
2023/05/04 05:19:03;;;;;;;6.80;5.70;;;;;;;14.29;55.58;99776.63;5071138;28;20293;-84
2023/05/04 05:21:28;;;;;;;6.53;5.77;;;;;;;14.75;54.50;99778.41;5067979;28;20216;-84
2023/05/04 05:23:54;;;;;;;6.93;5.90;;;;;;;15.23;53.60;99776.31;5068433;28;20219;-84
2023/05/04 05:26:20;;;;;;;6.70;6.00;;;;;;;15.68;52.33;99773.53;5068965;28;20193;-83
2023/05/04 05:28:46;;;;;;;6.00;5.40;;;;;;;16.12;51.57;99776.97;5070260;28;20694;-84
2023/05/04 05:31:11;;;;;;;8.40;5.87;;;;;;;16.49;50.57;99775.66;5070489;28;20279;-84
2023/05/04 05:33:37;;;;;;;8.57;5.67;;;;;;;16.82;49.90;99787.84;5068926;28;20263;-82
2023/05/04 05:36:04;;;;;;;7.60;6.80;;;;;;;17.25;48.29;99779.63;5069914;28;20507;-84
2023/05/04 05:38:30;;;;;;;7.90;6.82;;;;;;;17.46;47.98;99779.50;5070288;28;20657;-83
2023/05/04 05:40:55;;;;;;;7.30;6.70;;;;;;;17.68;47.84;99780.22;5069948;28;20325;-84
2023/05/04 05:43:21;;;;;;;6.53;5.70;;;;;;;18.00;47.02;99781.81;5070604;28;20713;-84
2023/05/04 05:45:47;;;;;;;6.27;5.67;;;;;;;18.30;46.81;99778.13;5071569;28;20195;-85
2023/05/04 05:48:12;;;;;;;7.13;5.88;;;;;;;18.53;45.90;99776.81;5071269;28;20202;-85
2023/05/04 05:50:38;;;;;;;7.03;6.33;;;;;;;18.70;45.61;99777.03;5069973;28;20219;-84
2023/05/04 05:53:03;;;;;;;9.10;6.63;;;;;;;18.83;45.21;99782.91;5071533;28;20206;-85
2023/05/04 05:55:28;;;;;;;6.57;5.90;;;;;;;18.90;45.29;99769.84;5068506;28;20201;-84
2023/05/04 05:57:54;;;;;;;6.73;5.97;;;;;;;19.01;44.63;99778.50;5070730;28;20194;-84
2023/05/04 06:00:19;;;;;;;7.37;6.60;;;;;;;19.18;44.53;99770.69;5071882;28;20202;-84
2023/05/04 06:02:45;;;;;;;10.37;6.77;;;;;;;19.27;44.22;99771.63;5068732;28;20246;-83
2023/05/04 06:05:11;;;;;;;7.10;5.90;;;;;;;19.39;43.87;99770.44;5069260;28;20259;-81
2023/05/04 06:07:36;;;;;;;6.73;6.03;;;;;;;19.69;43.18;99765.75;5069954;28;20203;-81
2023/05/04 06:10:03;;;;;;;6.90;5.60;;;;;;;19.90;42.58;99758.25;5071370;28;21028;-82
2023/05/04 06:12:28;;;;;;;8.43;6.60;;;;;;;20.16;42.26;99760.13;5069275;28;20237;-82
2023/05/04 06:14:54;;;;;;;7.17;6.53;;;;;;;20.43;41.79;99764.50;5069865;28;20469;-83
2023/05/04 06:17:20;;;;;;;7.67;6.97;;;;;;;20.62;41.02;99760.81;5069630;28;20201;-83
2023/05/04 06:19:46;;;;;;;5.77;5.20;;;;;;;20.77;41.24;99756.56;5068643;28;20227;-83
2023/05/04 06:22:12;;;;;;;7.20;6.40;;;;;;;20.80;40.36;99753.56;5069822;28;20454;-82
2023/05/04 06:24:37;;;;;;;6.90;6.20;;;;;;;20.80;40.30;99748.22;5069797;28;20466;-83
2023/05/04 06:27:03;;;;;;;8.80;6.13;;;;;;;20.85;40.01;99740.56;5069984;28;20618;-82
2023/05/04 06:29:28;;;;;;;6.67;5.83;;;;;;;20.91;40.02;99734.56;5069931;28;20240;-82
2023/05/04 06:31:55;;;;;;;7.13;6.40;;;;;;;21.07;39.85;99722.28;5067155;28;20226;-82
2023/05/04 06:34:20;;;;;;;7.57;6.97;;;;;;;21.26;39.50;99721.16;5068849;28;20566;-81
2023/05/04 06:36:47;;;;;;;6.50;5.77;;;;;;;21.31;39.39;99724.19;5070400;28;20439;-82
2023/05/04 06:39:13;;;;;;;6.73;6.13;;;;;;;21.37;39.50;99728.88;5064329;28;20201;-82
2023/05/04 06:41:39;;;;;;;6.60;6.00;;;;;;;21.17;39.47;99717.63;5069504;28;20495;-82
2023/05/04 06:44:04;;;;;;;7.13;6.43;;;;;;;21.15;39.45;99724.97;5066596;28;20560;-83
2023/05/04 06:46:32;;;;;;;7.33;5.27;;;;;;;21.24;39.53;99723.16;5067533;28;20676;-83
2023/05/04 06:48:58;;;;;;;6.77;6.10;;;;;;;21.41;39.43;99722.22;5068893;28;20189;-83
2023/05/04 06:51:23;;;;;;;6.43;5.80;;;;;;;21.61;39.02;99725.44;5067174;28;20514;-82
2023/05/04 06:53:48;;;;;;;6.17;5.57;;;;;;;21.78;38.28;99727.09;5066990;28;20432;-82
2023/05/04 06:56:15;;;;;;;7.20;6.20;;;;;;;21.92;38.27;99714.88;5066781;28;20461;-83
2023/05/04 06:58:41;;;;;;;6.70;6.10;;;;;;;22.03;37.54;99714.53;5067914;28;20554;-84
2023/05/04 07:01:07;;;;;;;6.00;5.40;;;;;;;22.21;nan;99727.75;5067509;28;20458;-83
2023/05/04 07:03:33;;;;;;;6.77;6.03;;;;;;;22.34;nan;99713.03;5072462;28;20284;-84
2023/05/04 07:05:59;;;;;;;7.53;6.93;;;;;;;22.41;nan;99709.47;5067139;28;20952;-83
2023/05/04 07:08:24;;;;;;;5.97;5.40;;;;;;;22.37;nan;99715.38;5069459;28;20499;-83
2023/05/04 07:10:50;;;;;;;5.90;5.40;;;;;;;22.20;nan;99712.72;5080660;28;20200;-83
2023/05/04 07:13:15;;;;;;;5.97;5.47;;;;;;;22.04;nan;99718.06;5067073;28;20197;-82
2023/05/04 07:15:40;;;;;;;12.57;6.60;;;;;;;21.96;nan;99712.72;5069047;28;20204;-82
2023/05/04 07:18:06;;;;;;;7.03;5.87;;;;;;;21.93;nan;99713.03;5068519;28;20725;-82
2023/05/04 07:20:31;;;;;;;7.70;6.57;;;;;;;22.11;nan;99711.00;5068473;28;20210;-84
2023/05/04 07:22:57;;;;;;;8.57;7.10;;;;;;;22.30;nan;99710.69;5069448;28;20239;-84
2023/05/04 07:25:23;;;;;;;6.30;5.70;;;;;;;22.48;nan;99718.50;5070135;28;20968;-83
2023/05/04 07:27:49;;;;;;;6.67;6.07;;;;;;;22.70;nan;99718.75;5069005;28;20226;-83
2023/05/04 07:30:14;;;;;;;7.23;6.53;;;;;;;22.79;nan;99715.06;5067279;28;20438;-83
2023/05/04 07:32:40;;;;;;;7.47;6.77;;;;;;;22.97;nan;99712.16;5067640;28;20216;-83
2023/05/04 07:35:05;;;;;;;7.10;6.40;;;;;;;23.24;nan;99707.31;5068066;28;20437;-83
2023/05/04 07:37:31;;;;;;;7.00;6.13;;;;;;;23.32;nan;99704.56;5068644;28;20215;-83
2023/05/04 07:39:59;;;;;;;8.10;5.83;;;;;;;23.33;nan;99704.41;5067932;28;20206;-83
2023/05/04 07:42:26;;;;;;;7.90;6.80;;;;;;;23.31;nan;99708.28;5063984;28;20209;-82
2023/05/04 07:44:52;;;;;;;6.20;5.60;;;;;;;23.45;nan;99696.78;5062390;28;20805;-83
2023/05/04 07:47:18;;;;;;;8.53;6.73;;;;;;;23.66;nan;99701.50;5063221;28;20461;-84
2023/05/04 07:49:44;;;;;;;9.13;6.67;;;;;;;23.68;nan;99709.34;5063842;28;20454;-84
2023/05/04 07:52:09;;;;;;;11.07;5.87;;;;;;;23.57;nan;99713.28;5063634;28;20205;-84
2023/05/04 07:54:35;;;;;;;6.33;5.73;;;;;;;23.62;nan;99719.75;5063910;28;20213;-84
2023/05/04 07:57:04;;;;;;;7.50;5.60;;;;;;;23.85;nan;99721.66;5065798;28;20202;-83
2023/05/04 07:59:30;;;;;;;6.87;6.27;;;;;;;23.93;nan;99716.22;5065316;28;20477;-82
2023/05/04 08:01:56;;;;;;;6.47;5.87;;;;;;;23.90;nan;99721.94;5064785;28;20554;-83
2023/05/04 08:04:21;;;;;;;6.80;5.97;;;;;;;23.96;nan;99721.22;5065007;28;20615;-83
2023/05/04 08:06:48;;;;;;;7.80;6.70;;;;;;;23.90;nan;99713.91;5066624;28;20202;-83
2023/05/04 08:09:14;;;;;;;6.23;5.67;;;;;;;24.08;nan;99726.97;5066395;28;21376;-84
2023/05/04 08:11:40;;;;;;;7.30;6.50;;;;;;;24.15;nan;99721.72;5065913;28;20565;-83
2023/05/04 08:14:05;;;;;;;7.53;6.73;;;;;;;23.73;nan;99715.03;5067403;28;20971;-83
2023/05/04 08:16:31;;;;;;;9.23;6.40;;;;;;;23.45;nan;99725.44;5067465;28;20192;-83
2023/05/04 08:18:58;;;;;;;7.77;7.07;;;;;;;23.16;nan;99717.06;5067943;28;20214;-83
2023/05/04 08:21:24;;;;;;;7.37;6.03;;;;;;;23.21;nan;99715.72;5066253;28;20451;-83
2023/05/04 08:23:49;;;;;;;7.70;6.93;;;;;;;23.39;nan;99716.25;5062328;28;20974;-83
2023/05/04 08:26:15;;;;;;;10.03;6.83;;;;;;;23.62;nan;99719.75;5074764;28;20384;-83
2023/05/04 08:28:41;;;;;;;7.93;6.50;;;;;;;23.89;nan;99724.78;5060588;28;20198;-83
2023/05/04 08:31:06;;;;;;;9.10;6.13;;;;;;;23.86;nan;99723.31;5061983;28;20206;-83
2023/05/04 08:33:33;;;;;;;8.70;6.87;;;;;;;23.67;nan;99713.88;5062764;28;20458;-84
2023/05/04 08:35:58;;;;;;;6.67;5.97;;;;;;;23.60;nan;99715.59;5063859;28;20675;-84
2023/05/04 08:38:24;;;;;;;10.63;6.70;;;;;;;23.42;nan;99716.75;5063155;28;20449;-84
2023/05/04 08:40:49;;;;;;;9.43;6.53;;;;;;;23.36;nan;99720.13;5061123;28;20215;-84
2023/05/04 08:43:15;;;;;;;6.07;5.33;;;;;;;23.45;nan;99718.22;5062813;28;20265;-83
2023/05/04 08:45:41;;;;;;;10.67;6.40;;;;;;;23.49;nan;99713.34;5060350;28;20683;-84
2023/05/04 08:48:07;;;;;;;15.83;7.00;;;;;;;23.42;nan;99706.00;5057367;28;20699;-83
2023/05/04 08:50:33;;;;;;;7.90;7.10;;;;;;;23.28;nan;99709.47;5060934;28;20204;-84
2023/05/04 08:53:02;;;;;;;7.17;6.50;;;;;;;23.17;nan;99707.19;5074528;28;20446;-83
2023/05/04 08:55:32;;;;;;;8.10;7.03;;;;;;;23.04;nan;99705.09;5061886;28;20960;-84
2023/05/04 08:58:04;;;;;;;7.83;6.73;;;;;;;22.97;nan;99699.56;5061319;28;20457;-83
2023/05/04 09:00:31;;;;;;;7.30;6.60;;;;;;;23.00;nan;99695.72;5062268;28;21098;-84
2023/05/04 09:02:58;;;;;;;5.83;4.90;;;;;;;22.90;nan;99697.75;5063440;28;20961;-83
2023/05/04 09:05:25;;;;;;;7.20;6.33;;;;;;;22.94;nan;99696.41;5063416;28;20431;-84
2023/05/04 09:07:52;;;;;;;6.67;5.53;;;;;;;23.01;nan;99691.19;5065975;28;20465;-83
2023/05/04 09:10:18;;;;;;;8.27;6.10;;;;;;;23.05;nan;99689.84;5068766;28;20485;-83
2023/05/04 09:12:44;;;;;;;7.10;5.80;;;;;;;22.91;nan;99702.09;5068063;28;21003;-83
2023/05/04 09:15:16;;;;;;;6.23;5.63;;;;;;;22.88;nan;99695.25;5068103;28;20490;-83
2023/05/04 09:17:43;;;;;;;7.33;6.30;;;;;;;22.93;nan;99695.56;5069212;28;20204;-83
2023/05/04 09:20:09;;;;;;;5.77;5.17;;;;;;;23.01;nan;99692.03;5067135;28;20469;-83
2023/05/04 09:22:34;;;;;;;5.73;5.00;;;;;;;22.91;nan;99696.75;5066208;28;20433;-83
2023/05/04 09:25:10;;;;;;;7.70;5.53;;;;;;;22.85;nan;99698.28;5066444;28;20885;-83
2023/05/04 09:27:36;;;;;;;8.07;5.63;;;;;;;23.04;nan;99694.38;5066530;28;20282;-83
2023/05/04 09:30:01;;;;;;;6.80;6.20;;;;;;;23.04;nan;99682.81;5066351;28;20500;-82
2023/05/04 09:32:27;;;;;;;4.90;4.40;;;;;;;23.05;nan;99679.94;5067605;28;21095;-83
2023/05/04 09:34:53;;;;;;;5.30;4.80;;;;;;;23.09;nan;99667.06;5067292;28;20225;-83
2023/05/04 09:37:20;;;;;;;5.17;4.73;;;;;;;22.95;nan;99666.75;5066026;28;20269;-83
2023/05/04 09:39:57;;;;;;;6.47;5.73;;;;;;;22.90;nan;99658.41;5067430;28;20452;-83
2023/05/04 09:42:23;;;;;;;7.13;5.33;;;;;;;22.87;nan;99652.56;5064780;28;20461;-83
2023/05/04 09:44:59;;;;;;;6.20;5.60;;;;;;;22.89;nan;99658.59;5066398;28;20449;-83
2023/05/04 09:47:38;;;;;;;5.93;5.13;;;;;;;22.84;nan;99655.59;5066597;28;20445;-84
2023/05/04 09:50:20;;;;;;;5.13;4.70;;;;;;;22.96;nan;99667.63;5066971;28;20478;-84
2023/05/04 09:52:47;;;;;;;5.77;5.17;;;;;;;23.14;nan;99659.28;5065593;28;20429;-83
2023/05/04 09:55:15;;;;;;;5.30;4.80;;;;;;;23.36;nan;99652.28;5066803;28;20459;-83
2023/05/04 09:57:42;;;;;;;5.97;5.10;;;;;;;23.35;nan;99642.56;5067289;28;20441;-83
2023/05/04 10:00:14;;;;;;;5.30;4.50;;;;;;;23.30;nan;99648.47;5066659;28;20572;-83
2023/05/04 10:02:42;;;;;;;6.00;4.63;;;;;;;23.36;nan;99646.94;5063985;28;20818;-83
2023/05/04 10:05:09;;;;;;;4.90;4.50;;;;;;;23.40;nan;99650.91;5078179;28;20505;-84
2023/05/04 10:07:39;;;;;;;4.23;3.87;;;;;;;23.50;nan;99646.13;5066608;28;20472;-83
2023/05/04 10:10:06;;;;;;;6.77;4.90;;;;;;;23.60;nan;99651.25;5067173;28;20414;-83
2023/05/04 10:12:32;;;;;;;7.37;4.87;;;;;;;23.69;nan;99642.13;5065894;28;20426;-84
2023/05/04 10:14:57;;;;;;;5.87;4.63;;;;;;;23.85;nan;99638.50;5067233;28;20470;-84
2023/05/04 10:17:38;;;;;;;4.63;4.23;;;;;;;24.08;nan;99631.19;5065720;28;20216;-84
2023/05/04 10:20:42;;;;;;;5.30;4.80;;;;;;;24.31;nan;99624.09;5067669;28;20284;-83
2023/05/04 10:23:14;;;;;;;3.97;3.63;;;;;;;24.41;nan;99620.09;5006495;28;20469;-85
2023/05/04 10:26:17;;;;;;;5.80;4.30;;;;;;;24.50;nan;99613.63;5061222;28;20461;-83
2023/05/04 10:29:19;;;;;;;5.10;4.60;;;;;;;24.42;nan;99604.81;5066178;28;20485;-83
2023/05/04 10:31:44;;;;;;;5.70;4.63;;;;;;;24.37;nan;99613.41;5066655;28;20457;-83
2023/05/04 10:34:10;;;;;;;4.43;4.03;;;;;;;24.40;nan;99601.47;5066746;28;20827;-84
2023/05/04 10:36:43;;;;;;;6.10;4.93;;;;;;;24.44;nan;99592.06;5066850;28;20231;-84
2023/05/04 10:39:22;;;;;;;5.00;4.60;;;;;;;24.45;nan;99599.91;5067709;28;20514;-84
2023/05/04 10:42:03;;;;;;;5.77;4.60;;;;;;;24.46;nan;99601.56;5067293;28;20482;-83
2023/05/04 10:44:47;;;;;;;4.27;3.87;;;;;;;24.44;nan;99592.91;5069190;28;20777;-84
2023/05/04 10:47:13;;;;;;;5.33;4.87;;;;;;;24.57;nan;99588.69;5065849;28;20999;-83
2023/05/04 10:49:38;;;;;;;4.03;3.60;;;;;;;24.71;nan;99577.91;5065320;28;20454;-84
2023/05/04 10:52:07;;;;;;;5.53;4.17;;;;;;;24.84;nan;99577.22;5066293;28;20196;-84
2023/05/04 10:54:35;;;;;;;4.57;4.17;;;;;;;24.85;nan;99578.06;5067571;28;20211;-83
2023/05/04 10:57:09;;;;;;;4.60;3.77;;;;;;;24.81;nan;99568.72;5067213;28;20553;-84
2023/05/04 10:59:35;;;;;;;3.93;3.63;;;;;;;24.91;nan;99567.38;5068081;28;20453;-84
2023/05/04 11:02:02;;;;;;;4.53;3.57;;;;;;;25.02;nan;99565.19;5067137;28;20467;-84
2023/05/04 11:04:28;;;;;;;4.00;2.93;;;;;;;25.04;nan;99555.91;5066284;28;20452;-84
2023/05/04 11:07:00;;;;;;;4.30;3.90;;;;;;;25.15;nan;99554.59;5067310;28;20548;-84
2023/05/04 11:09:27;;;;;;;6.13;4.07;;;;;;;25.13;nan;99551.25;5068188;28;20879;-83
2023/05/04 11:11:54;;;;;;;3.53;3.23;;;;;;;25.13;nan;99552.06;5067922;28;20547;-84
2023/05/04 11:14:27;;;;;;;3.93;3.53;;;;;;;25.08;nan;99540.22;5066644;28;20527;-84
2023/05/04 11:17:05;;;;;;;4.03;3.63;;;;;;;24.99;nan;99536.84;5067878;28;20448;-84
2023/05/04 11:19:31;;;;;;;4.70;3.77;;;;;;;25.01;nan;99536.69;5066757;28;21017;-84
2023/05/04 11:21:56;;;;;;;4.53;3.37;;;;;;;25.03;nan;99532.75;5067926;28;21155;-84
2023/05/04 11:24:22;;;;;;;3.80;3.50;;;;;;;25.06;nan;99529.69;5067113;28;20454;-84
2023/05/04 11:26:48;;;;;;;3.70;3.40;;;;;;;25.15;nan;99530.41;5067879;28;20223;-85
2023/05/04 11:29:14;;;;;;;3.93;3.37;;;;;;;25.20;nan;99525.28;5069054;28;20296;-84
2023/05/04 11:31:40;;;;;;;3.37;3.07;;;;;;;25.17;nan;99523.00;5069005;28;20230;-84
2023/05/04 11:34:06;;;;;;;5.07;4.20;;;;;;;25.15;nan;99516.97;5070159;28;20610;-84
2023/05/04 11:36:38;;;;;;;7.63;3.30;;;;;;;25.16;nan;99519.44;5070730;28;20503;-85
2023/05/04 11:39:05;;;;;;;3.77;3.37;;;;;;;25.23;nan;99514.16;5068908;28;20575;-84